Time;durP1;ratioP1;P1;durP2;ratioP2;P2;SDS_P1;SDS_P2;PMS_P1;PMS_P2;Temp;Humidity;BMP_temperature;BMP_pressure;BME280_temperature;BME280_humidity;BME280_pressure;Samples;Min_cycle;Max_cycle;Signal;HPM_P1;HPM_P2
2022/06/17 00:00:14;;;;;;;8.98;5.65;;;14.00;99.90;;;;;;5034373;28;20041;-80
2022/06/17 00:02:39;;;;;;;7.63;5.75;;;14.00;99.90;;;;;;5034643;28;20121;-81
2022/06/17 00:05:06;;;;;;;7.68;5.88;;;14.00;99.90;;;;;;5034684;28;20466;-79
2022/06/17 00:07:32;;;;;;;8.98;5.57;;;14.00;99.90;;;;;;5035602;28;20030;-81
2022/06/17 00:09:57;;;;;;;9.63;6.07;;;14.00;99.90;;;;;;5034677;28;20103;-80
2022/06/17 00:12:23;;;;;;;8.60;5.65;;;14.10;99.90;;;;;;5034018;28;20049;-81
2022/06/17 00:17:32;;;;;;;9.05;6.05;;;14.10;99.90;;;;;;5034220;28;20060;-81
2022/06/17 00:19:58;;;;;;;7.90;5.97;;;14.00;99.90;;;;;;5034088;28;20037;-81
2022/06/17 00:22:25;;;;;;;10.00;6.47;;;13.90;99.90;;;;;;5034250;28;20123;-80
2022/06/17 00:24:53;;;;;;;11.48;5.85;;;13.80;99.90;;;;;;5035688;28;20053;-80
2022/06/17 00:27:19;;;;;;;8.48;6.00;;;13.80;99.90;;;;;;5034418;28;20522;-80
2022/06/17 00:29:44;;;;;;;9.70;6.32;;;13.80;99.90;;;;;;5035494;28;20037;-80
2022/06/17 00:32:10;;;;;;;8.85;6.95;;;13.80;99.90;;;;;;5033883;28;20412;-81
2022/06/17 00:34:35;;;;;;;11.02;7.07;;;13.80;99.90;;;;;;5035179;28;20091;-80
2022/06/17 00:37:03;;;;;;;8.23;6.38;;;13.80;99.90;;;;;;5033143;28;20041;-81
2022/06/17 00:39:32;;;;;;;10.60;6.18;;;13.80;99.90;;;;;;5036163;28;20117;-81
2022/06/17 00:42:07;;;;;;;10.63;7.15;;;13.90;99.90;;;;;;5035166;28;20468;-80
2022/06/17 00:44:55;;;;;;;9.65;6.32;;;13.70;99.90;;;;;;5034294;28;20053;-81
2022/06/17 00:47:35;;;;;;;9.13;6.82;;;13.80;99.90;;;;;;5035184;28;20045;-80
2022/06/17 00:50:15;;;;;;;10.88;6.63;;;13.80;99.90;;;;;;5033669;28;20455;-80
2022/06/17 00:53:07;;;;;;;8.38;6.30;;;13.80;99.90;;;;;;5035205;28;20072;-80
2022/06/17 00:55:42;;;;;;;7.90;6.55;;;13.90;99.90;;;;;;5033875;28;20060;-80
2022/06/17 00:58:18;;;;;;;10.63;6.53;;;13.80;99.90;;;;;;5034073;28;20049;-81
2022/06/17 01:00:45;;;;;;;11.43;7.13;;;13.90;99.90;;;;;;5017177;28;20041;-80
2022/06/17 01:03:18;;;;;;;12.25;7.97;;;13.80;99.90;;;;;;5032323;28;20045;-81
2022/06/17 01:06:08;;;;;;;10.50;6.68;;;13.70;99.90;;;;;;5032087;28;20041;-81
2022/06/17 01:11:35;;;;;;;9.32;6.32;;;13.70;99.90;;;;;;5033319;28;20049;-81
2022/06/17 01:14:05;;;;;;;9.57;7.18;;;13.80;99.90;;;;;;5032875;28;20064;-81
2022/06/17 01:16:33;;;;;;;10.88;7.18;;;13.80;99.90;;;;;;5036942;28;20068;-81
2022/06/17 01:19:07;;;;;;;10.65;6.60;;;13.80;99.90;;;;;;5035733;28;20046;-80
2022/06/17 01:21:47;;;;;;;9.73;6.82;;;13.90;99.90;;;;;;5035280;28;20048;-81
2022/06/17 01:24:14;;;;;;;9.25;6.30;;;13.80;99.90;;;;;;5034735;28;20045;-81
2022/06/17 01:26:40;;;;;;;8.90;6.97;;;13.80;99.90;;;;;;5036481;28;20068;-80
2022/06/17 01:29:15;;;;;;;13.35;8.30;;;13.90;99.90;;;;;;5035904;28;20397;-80
2022/06/17 01:31:51;;;;;;;10.27;6.57;;;13.70;99.90;;;;;;5034037;28;20037;-81
2022/06/17 01:34:18;;;;;;;8.80;6.75;;;13.80;99.90;;;;;;5034754;28;20037;-81
2022/06/17 01:36:45;;;;;;;11.13;6.75;;;13.80;99.90;;;;;;5034834;28;20038;-80
2022/06/17 01:39:13;;;;;;;9.75;6.72;;;13.80;99.90;;;;;;5019376;28;20045;-81
2022/06/17 01:41:41;;;;;;;11.60;7.38;;;13.80;99.90;;;;;;5034682;28;20049;-81
2022/06/17 01:44:15;;;;;;;11.43;6.75;;;13.80;99.90;;;;;;5034732;28;20042;-81
2022/06/17 01:46:44;;;;;;;13.38;6.82;;;13.70;99.90;;;;;;5018563;28;20076;-81
2022/06/17 01:49:12;;;;;;;10.18;6.82;;;13.70;99.90;;;;;;5019183;28;20073;-81
2022/06/17 01:51:45;;;;;;;11.15;6.70;;;13.70;99.90;;;;;;5035323;28;20033;-81
2022/06/17 01:54:16;;;;;;;9.70;6.60;;;13.70;99.90;;;;;;5034831;28;20064;-81
2022/06/17 01:56:44;;;;;;;9.70;6.50;;;13.80;99.90;;;;;;5036282;28;20128;-80
2022/06/17 01:59:36;;;;;;;9.07;5.65;;;13.70;99.90;;;;;;5036398;28;20037;-81
2022/06/17 02:02:04;;;;;;;12.93;6.47;;;13.70;99.90;;;;;;5034541;28;20068;-81
2022/06/17 02:04:36;;;;;;;10.30;6.07;;;13.80;99.90;;;;;;5034785;28;20073;-81
2022/06/17 02:07:17;;;;;;;10.70;6.68;;;13.70;99.90;;;;;;5018763;28;20465;-81
2022/06/17 02:09:44;;;;;;;13.43;7.63;;;13.80;99.90;;;;;;5017575;28;20052;-80
2022/06/17 02:12:11;;;;;;;12.15;7.03;;;13.80;99.90;;;;;;5034131;28;20075;-81
2022/06/17 02:14:37;;;;;;;8.52;7.00;;;13.70;99.90;;;;;;5034134;28;20057;-80
2022/06/17 02:17:04;;;;;;;8.25;6.38;;;13.80;99.90;;;;;;5034205;28;20056;-80
2022/06/17 02:19:34;;;;;;;9.52;6.47;;;13.80;99.90;;;;;;5034262;28;20602;-81
2022/06/17 02:22:04;;;;;;;8.60;5.93;;;13.70;99.90;;;;;;5033501;28;20038;-80
2022/06/17 02:24:30;;;;;;;10.95;6.30;;;13.80;99.90;;;;;;5034630;28;20041;-80
2022/06/17 02:26:59;;;;;;;10.75;6.30;;;13.70;99.90;;;;;;5033842;28;20112;-80
2022/06/17 02:29:25;;;;;;;10.95;5.95;;;13.70;99.90;;;;;;5035676;28;20037;-80
2022/06/17 02:31:51;;;;;;;10.75;6.10;;;13.60;99.90;;;;;;5014399;28;20041;-81
2022/06/17 02:34:18;;;;;;;12.25;6.38;;;13.60;99.90;;;;;;5033172;28;20465;-79
2022/06/17 02:36:56;;;;;;;11.57;6.60;;;13.60;99.90;;;;;;5034157;28;20045;-79
2022/06/17 02:39:22;;;;;;;8.85;6.13;;;13.60;99.90;;;;;;5034794;28;20038;-78
2022/06/17 02:41:50;;;;;;;11.73;6.60;;;13.60;99.90;;;;;;5049153;28;20072;-78
2022/06/17 02:44:23;;;;;;;9.70;6.32;;;13.60;99.90;;;;;;5033513;28;20092;-79
2022/06/17 02:46:53;;;;;;;9.68;6.13;;;13.60;99.90;;;;;;5023086;28;20040;-80
2022/06/17 02:49:24;;;;;;;8.70;6.43;;;13.60;99.90;;;;;;5030478;28;20507;-80
2022/06/17 02:51:50;;;;;;;10.93;6.90;;;13.70;99.90;;;;;;5030194;28;20420;-80
2022/06/17 02:54:23;;;;;;;13.27;7.55;;;13.70;99.90;;;;;;5031322;28;20308;-80
2022/06/17 02:56:53;;;;;;;14.18;6.65;;;13.70;99.90;;;;;;5030036;28;20087;-80
2022/06/17 02:59:29;;;;;;;7.50;5.90;;;13.70;99.90;;;;;;5030561;28;20468;-80
2022/06/17 03:01:59;;;;;;;10.13;6.82;;;13.70;99.90;;;;;;5013732;28;20037;-80
2022/06/17 03:04:31;;;;;;;10.82;7.18;;;13.70;99.90;;;;;;5013613;28;20492;-79
2022/06/17 03:06:56;;;;;;;;;;;13.70;99.90;;;;;;5013790;28;20504;-79
2022/06/17 03:09:32;;;;;;;12.45;6.85;;;13.80;99.90;;;;;;5029807;28;19963;-79
2022/06/17 03:12:08;;;;;;;11.80;6.90;;;13.80;99.90;;;;;;5031055;28;20041;-80
2022/06/17 03:14:37;;;;;;;11.98;6.80;;;13.90;99.90;;;;;;5013253;28;20080;-80
2022/06/17 03:17:07;;;;;;;12.07;7.05;;;14.00;99.90;;;;;;5013054;28;20041;-79
2022/06/17 03:19:36;;;;;;;10.90;6.90;;;14.00;99.90;;;;;;5013461;28;20037;-80
2022/06/17 03:22:06;;;;;;;11.23;7.03;;;14.00;99.90;;;;;;5029915;28;20045;-80
2022/06/17 03:24:43;;;;;;;11.65;7.43;;;14.10;99.90;;;;;;5029654;28;20037;-80
2022/06/17 03:27:20;;;;;;;10.57;7.25;;;14.10;99.90;;;;;;5030905;28;20069;-80
2022/06/17 03:29:47;;;;;;;10.32;7.25;;;14.10;99.90;;;;;;5029811;28;20359;-80
2022/06/17 03:32:18;;;;;;;10.45;7.32;;;14.20;99.90;;;;;;5029711;28;20377;-79
2022/06/17 03:34:51;;;;;;;11.45;8.23;;;14.20;99.90;;;;;;5013080;28;20041;-80
2022/06/17 03:37:24;;;;;;;15.20;8.52;;;14.30;99.90;;;;;;5029438;28;20044;-80
2022/06/17 03:40:12;;;;;;;14.68;7.70;;;14.40;99.90;;;;;;5029402;28;20041;-79
2022/06/17 03:42:51;;;;;;;13.63;7.82;;;14.40;99.90;;;;;;5029948;28;20057;-80
2022/06/17 03:45:27;;;;;;;14.30;7.38;;;14.50;99.90;;;;;;5029460;28;20053;-80
2022/06/17 03:48:04;;;;;;;14.07;8.48;;;14.50;99.90;;;;;;5029870;28;20048;-80
2022/06/17 03:50:36;;;;;;;12.30;7.95;;;14.60;99.90;;;;;;5030513;28;20038;-80
2022/06/17 03:53:04;;;;;;;;;;;14.60;99.90;;;;;;5031151;28;20121;-80
2022/06/17 03:55:30;;;;;;;10.18;7.25;;;14.80;99.90;;;;;;5030744;28;20348;-79
2022/06/17 03:57:59;;;;;;;11.90;8.07;;;14.80;99.90;;;;;;5012859;28;20065;-80
2022/06/17 04:00:36;;;;;;;11.23;7.57;;;14.80;99.90;;;;;;5012737;28;20129;-80
2022/06/17 04:03:04;;;;;;;13.20;9.20;;;14.90;99.90;;;;;;5031091;28;20045;-79
2022/06/17 04:05:31;;;;;;;11.30;8.00;;;14.90;99.90;;;;;;5030599;28;20073;-80
2022/06/17 04:07:56;;;;;;;12.43;8.85;;;15.00;99.90;;;;;;5030722;28;20030;-80
2022/06/17 04:10:26;;;;;;;13.85;9.10;;;15.10;99.90;;;;;;5012454;28;20049;-79
2022/06/17 04:12:52;;;;;;;13.70;8.95;;;15.20;99.90;;;;;;5029107;28;20048;-80
2022/06/17 04:15:47;;;;;;;13.13;9.18;;;15.30;99.90;;;;;;5030395;28;20695;-80
2022/06/17 04:18:12;;;;;;;16.83;9.13;;;15.40;99.90;;;;;;5015540;28;20052;-79
2022/06/17 04:20:41;;;;;;;12.48;9.23;;;15.50;99.90;;;;;;5016311;28;20427;-80
2022/06/17 04:23:15;;;;;;;13.43;9.18;;;15.60;99.90;;;;;;5034341;28;20458;-79
2022/06/17 04:25:55;;;;;;;11.95;8.80;;;15.70;99.90;;;;;;5033952;28;20037;-80
2022/06/17 04:28:31;;;;;;;13.07;8.77;;;15.80;99.90;;;;;;5034234;28;20045;-80
2022/06/17 04:31:01;;;;;;;13.95;9.10;;;15.70;99.90;;;;;;5034008;28;20047;-80
2022/06/17 04:33:30;;;;;;;12.02;8.40;;;15.90;99.90;;;;;;5034102;28;20136;-80
2022/06/17 04:36:03;;;;;;;13.02;9.20;;;15.90;99.90;;;;;;5032524;28;20098;-80
2022/06/17 04:38:33;;;;;;;13.95;9.30;;;15.90;99.90;;;;;;5032898;28;20077;-79
2022/06/17 04:41:02;;;;;;;12.98;9.13;;;16.10;99.90;;;;;;5033888;28;20497;-80
2022/06/17 04:43:33;;;;;;;12.77;8.82;;;16.10;99.90;;;;;;5032545;28;20048;-80
2022/06/17 04:46:07;;;;;;;12.77;8.45;;;16.10;99.90;;;;;;5016281;28;20050;-80
2022/06/17 04:48:36;;;;;;;13.48;9.15;;;16.30;99.90;;;;;;5033858;28;20124;-81
2022/06/17 04:51:05;;;;;;;17.42;9.00;;;16.40;99.90;;;;;;5016169;28;20052;-79
2022/06/17 04:53:33;;;;;;;12.75;8.82;;;16.40;99.90;;;;;;5016454;28;20049;-80
2022/06/17 04:56:05;;;;;;;13.98;8.95;;;16.50;99.90;;;;;;5016836;28;20099;-79
2022/06/17 04:58:31;;;;;;;15.23;8.63;;;16.60;99.90;;;;;;5016572;28;20048;-80
2022/06/17 05:01:05;;;;;;;;;;;16.60;99.90;;;;;;5016892;28;20077;-80
2022/06/17 05:03:45;;;;;;;10.68;8.38;;;16.70;99.90;;;;;;5016280;28;19927;-80
2022/06/17 05:06:20;;;;;;;12.95;9.38;;;16.70;99.90;;;;;;5015726;28;20132;-80
2022/06/17 05:08:51;;;;;;;17.90;13.13;;;16.70;99.90;;;;;;5015240;28;20053;-79
2022/06/17 05:11:21;;;;;;;15.15;9.55;;;16.70;99.90;;;;;;5016144;28;20037;-80
2022/06/17 05:14:00;;;;;;;11.20;8.60;;;16.70;99.90;;;;;;5015766;28;20386;-79
2022/06/17 05:16:26;;;;;;;12.90;8.07;;;16.70;99.90;;;;;;5031684;28;20120;-79
2022/06/17 05:18:51;;;;;;;12.73;8.88;;;16.80;99.90;;;;;;5031961;28;20084;-79
2022/06/17 05:21:20;;;;;;;14.98;8.65;;;16.70;99.90;;;;;;5031234;28;20047;-78
2022/06/17 05:23:50;;;;;;;11.32;8.82;;;16.80;99.90;;;;;;5033834;28;20056;-79
2022/06/17 05:26:16;;;;;;;13.00;9.35;;;16.80;99.90;;;;;;5042922;28;20052;-78
2022/06/17 05:28:42;;;;;;;12.85;8.65;;;16.80;99.90;;;;;;5041938;28;20077;-78
2022/06/17 05:31:13;;;;;;;13.02;8.32;;;16.90;99.90;;;;;;5036065;28;20056;-79
2022/06/17 05:33:39;;;;;;;12.27;8.43;;;16.90;99.90;;;;;;5031680;28;20440;-79
2022/06/17 05:36:04;;;;;;;12.85;8.13;;;17.00;99.90;;;;;;5031504;28;20052;-78
2022/06/17 05:38:30;;;;;;;11.05;7.55;;;17.00;99.90;;;;;;5031169;28;20060;-78
2022/06/17 05:40:56;;;;;;;13.40;7.65;;;17.10;99.90;;;;;;5030844;28;20496;-78
2022/06/17 05:43:22;;;;;;;9.85;7.40;;;17.10;99.90;;;;;;5031204;28;20476;-78
2022/06/17 05:45:48;;;;;;;11.75;7.93;;;17.30;99.90;;;;;;5030935;28;20451;-79
2022/06/17 05:48:14;;;;;;;12.07;7.70;;;17.30;99.90;;;;;;5031310;28;20069;-79
2022/06/17 05:50:39;;;;;;;11.25;8.45;;;17.50;99.90;;;;;;5031039;28;20041;-79
2022/06/17 05:53:08;;;;;;;15.00;8.43;;;17.50;99.90;;;;;;5003923;28;20492;-79
2022/06/17 05:55:36;;;;;;;10.02;8.20;;;17.60;99.90;;;;;;5024590;28;20488;-79
2022/06/17 05:58:02;;;;;;;13.32;8.18;;;17.60;99.90;;;;;;5027205;28;20386;-79
2022/06/17 06:00:29;;;;;;;14.55;8.65;;;17.70;99.90;;;;;;5021193;28;20049;-78
2022/06/17 06:03:01;;;;;;;13.32;8.80;;;17.70;99.90;;;;;;5031042;28;20112;-79
2022/06/17 06:05:30;;;;;;;14.93;8.23;;;17.80;99.90;;;;;;5022181;28;20071;-78
2022/06/17 06:07:55;;;;;;;16.15;8.45;;;17.80;99.90;;;;;;5030524;28;20447;-79
2022/06/17 06:10:22;;;;;;;13.73;8.07;;;17.90;99.90;;;;;;5030394;28;20195;-79
2022/06/17 06:12:54;;;;;;;11.50;8.85;;;17.90;99.90;;;;;;5029888;28;20041;-79
2022/06/17 06:15:21;;;;;;;11.90;8.52;;;18.10;99.90;;;;;;5030102;28;20041;-79
2022/06/17 06:17:47;;;;;;;12.07;8.43;;;18.10;99.90;;;;;;5030226;28;20057;-79
2022/06/17 06:20:14;;;;;;;11.63;8.02;;;18.20;99.90;;;;;;5029920;28;20046;-79
2022/06/17 06:22:40;;;;;;;12.95;8.85;;;18.20;99.90;;;;;;5028233;28;20087;-78
2022/06/17 06:25:07;;;;;;;11.65;8.82;;;18.20;99.90;;;;;;5005771;28;20435;-78
2022/06/17 06:27:34;;;;;;;14.38;8.73;;;18.20;99.90;;;;;;5030376;28;20120;-79
2022/06/17 06:29:59;;;;;;;12.80;8.23;;;18.20;99.90;;;;;;5029222;28;20571;-78
2022/06/17 06:32:25;;;;;;;13.77;8.77;;;18.30;99.90;;;;;;5030174;28;21039;-79
2022/06/17 06:34:52;;;;;;;16.60;9.05;;;18.30;99.90;;;;;;5030273;28;20099;-79
2022/06/17 06:37:17;;;;;;;11.18;8.57;;;18.30;99.90;;;;;;5044404;28;20429;-79
2022/06/17 06:39:43;;;;;;;16.45;9.45;;;18.40;99.90;;;;;;5026844;28;20435;-79
2022/06/17 06:42:09;;;;;;;12.27;8.95;;;18.60;99.90;;;;;;5028360;28;20029;-79
2022/06/17 06:44:35;;;;;;;12.38;8.93;;;18.70;99.90;;;;;;5029369;28;20481;-79
2022/06/17 06:47:00;;;;;;;15.82;9.00;;;18.90;99.90;;;;;;5028626;28;20041;-79
2022/06/17 06:49:26;;;;;;;13.32;9.20;;;19.30;99.90;;;;;;5030024;28;20128;-79
2022/06/17 06:51:51;;;;;;;11.45;8.55;;;19.50;99.90;;;;;;5028767;28;20065;-78
2022/06/17 06:54:17;;;;;;;12.82;8.73;;;19.70;99.90;;;;;;5030431;28;20095;-78
2022/06/17 06:56:42;;;;;;;11.02;9.13;;;19.80;99.90;;;;;;5031661;28;20535;-79
2022/06/17 06:59:11;;;;;;;13.57;8.07;;;19.90;99.90;;;;;;5030470;28;20063;-79
2022/06/17 07:01:38;;;;;;;18.92;9.50;;;20.10;99.90;;;;;;5026991;28;20041;-80
2022/06/17 07:04:04;;;;;;;14.35;8.68;;;20.20;99.90;;;;;;5026928;28;20049;-79
2022/06/17 07:06:32;;;;;;;16.52;8.52;;;20.30;99.90;;;;;;5014059;28;20045;-83
2022/06/17 07:08:58;;;;;;;15.88;9.00;;;20.40;99.90;;;;;;5022574;28;20037;-80
2022/06/17 07:11:24;;;;;;;14.90;8.45;;;20.50;99.90;;;;;;5013756;28;20088;-80
2022/06/17 07:13:49;;;;;;;10.40;7.85;;;20.60;99.90;;;;;;5029398;28;20037;-80
2022/06/17 07:16:15;;;;;;;10.90;8.13;;;20.60;99.90;;;;;;5026641;28;20030;-79
2022/06/17 07:18:40;;;;;;;14.35;8.18;;;20.70;99.90;;;;;;5029069;28;20041;-80
2022/06/17 07:21:11;;;;;;;9.52;8.00;;;20.80;99.90;;;;;;5028362;28;20100;-80
2022/06/17 07:23:42;;;;;;;11.98;7.65;;;21.00;99.90;;;;;;5023336;28;20045;-79
2022/06/17 07:26:23;;;;;;;11.00;7.72;;;21.20;99.90;;;;;;5030937;28;20381;-80
2022/06/17 07:28:52;;;;;;;12.77;8.30;;;21.40;99.90;;;;;;5009469;28;20033;-80
2022/06/17 07:31:18;;;;;;;12.38;7.63;;;21.70;99.90;;;;;;5030311;28;20053;-80
2022/06/17 07:33:44;;;;;;;8.15;6.95;;;22.30;99.90;;;;;;5014480;28;20045;-80
2022/06/17 07:39:53;;;;;;;10.35;6.97;;;22.90;99.90;;;;;;5013696;28;20041;-80
2022/06/17 07:41:43;;;;;;;8.98;6.00;;;24.20;99.90;;;;;;5024447;28;20531;-80
2022/06/17 07:44:08;;;;;;;9.02;6.50;;;24.70;99.90;;;;;;5030455;28;20045;-80
2022/06/17 07:46:34;;;;;;;12.05;6.55;;;25.00;99.90;;;;;;5013304;28;20049;-81
2022/06/17 07:49:01;;;;;;;7.55;6.28;;;25.10;99.90;;;;;;5031018;28;20038;-80
2022/06/17 07:51:27;;;;;;;9.52;6.07;;;24.90;99.90;;;;;;5028114;28;20051;-80
2022/06/17 07:53:53;;;;;;;6.90;5.40;;;24.90;99.90;;;;;;5027214;28;20071;-80
2022/06/17 07:56:20;;;;;;;7.47;5.50;;;25.00;99.90;;;;;;5032511;28;20126;-80
2022/06/17 07:58:46;;;;;;;7.68;5.35;;;25.20;99.90;;;;;;5028998;28;20118;-81
2022/06/17 08:01:13;;;;;;;7.82;4.93;;;25.40;99.90;;;;;;5035671;28;20061;-81
2022/06/17 08:03:39;;;;;;;8.13;5.10;;;25.60;99.60;;;;;;5036793;28;20048;-81
2022/06/17 08:06:05;;;;;;;6.47;4.57;;;25.70;99.30;;;;;;5036815;28;20041;-81
2022/06/17 08:08:32;;;;;;;8.23;4.50;;;25.70;98.90;;;;;;5055139;28;20098;-82
2022/06/17 08:10:59;;;;;;;5.78;4.15;;;25.70;97.30;;;;;;5035296;28;20044;-81
2022/06/17 08:13:25;;;;;;;8.05;4.30;;;25.60;95.00;;;;;;5035707;28;20100;-81
2022/06/17 08:15:54;;;;;;;11.63;3.63;;;25.40;96.70;;;;;;5027115;28;20065;-81
2022/06/17 08:18:20;;;;;;;4.80;3.42;;;25.20;95.70;;;;;;5032693;28;20476;-81
2022/06/17 08:20:46;;;;;;;5.63;3.38;;;25.10;95.20;;;;;;5035255;28;20488;-81
2022/06/17 08:23:11;;;;;;;4.68;3.78;;;25.20;95.40;;;;;;5033635;28;20046;-81
2022/06/17 08:25:37;;;;;;;5.68;2.90;;;25.30;93.80;;;;;;5034124;28;20044;-81
2022/06/17 08:28:07;;;;;;;7.10;3.30;;;25.30;92.90;;;;;;5025381;28;20040;-82
2022/06/17 08:30:36;;;;;;;6.38;2.88;;;25.20;91.50;;;;;;5017505;28;20049;-82
2022/06/17 08:33:03;;;;;;;7.22;2.45;;;25.30;92.00;;;;;;5017737;28;20558;-80
2022/06/17 08:35:31;;;;;;;6.05;3.13;;;25.30;91.80;;;;;;5034456;28;20067;-81
2022/06/17 08:38:19;;;;;;;4.70;2.60;;;25.40;90.50;;;;;;5033618;28;20491;-81
2022/06/17 08:40:54;;;;;;;6.43;2.90;;;25.70;85.90;;;;;;5027967;28;20046;-81
2022/06/17 08:43:38;;;;;;;6.45;2.90;;;26.10;88.40;;;;;;5014497;28;20053;-81
2022/06/17 08:46:20;;;;;;;8.27;3.15;;;26.20;86.80;;;;;;5033888;28;20512;-81
2022/06/17 08:49:10;;;;;;;6.10;2.97;;;26.20;81.20;;;;;;5015094;28;20650;-80
2022/06/17 08:51:35;;;;;;;6.15;2.78;;;26.20;85.20;;;;;;5014302;28;20077;-81
2022/06/17 08:54:11;;;;;;;8.60;3.20;;;25.90;87.30;;;;;;5021314;28;20064;-81
2022/06/17 08:57:00;;;;;;;5.68;3.20;;;25.80;83.20;;;;;;5035725;28;20125;-81
2022/06/17 08:59:35;;;;;;;7.63;2.92;;;25.50;82.90;;;;;;5026914;28;20057;-81
2022/06/17 09:02:19;;;;;;;9.38;3.22;;;25.20;84.80;;;;;;5018640;28;20061;-80
2022/06/17 09:04:57;;;;;;;5.47;3.55;;;24.80;85.50;;;;;;5033525;28;20040;-81
2022/06/17 09:07:54;;;;;;;6.30;3.40;;;24.60;86.10;;;;;;5015815;28;20053;-81
2022/06/17 09:10:45;;;;;;;4.78;3.33;;;24.50;86.40;;;;;;5016348;28;20045;-81
2022/06/17 09:13:27;;;;;;;5.07;2.90;;;24.30;87.70;;;;;;5016359;28;20107;-81
2022/06/17 09:16:00;;;;;;;7.45;3.75;;;24.30;88.00;;;;;;5029560;28;20431;-81
2022/06/17 09:18:38;;;;;;;6.50;3.58;;;24.40;88.20;;;;;;5011959;28;20096;-81
2022/06/17 09:21:10;;;;;;;6.63;3.72;;;24.50;89.60;;;;;;5027346;28;20034;-81
2022/06/17 09:23:38;;;;;;;5.90;4.05;;;24.70;90.60;;;;;;5010555;28;20036;-81
2022/06/17 09:26:12;;;;;;;6.07;3.50;;;25.00;91.00;;;;;;5015390;28;20076;-81
2022/06/17 09:28:42;;;;;;;5.13;3.17;;;25.30;90.10;;;;;;5015414;28;20045;-81
2022/06/17 09:31:14;;;;;;;5.10;3.40;;;25.70;89.70;;;;;;5015450;28;20048;-81
2022/06/17 09:33:42;;;;;;;5.18;3.00;;;26.10;89.20;;;;;;5015513;28;20037;-81
2022/06/17 09:36:11;;;;;;;5.13;3.15;;;26.40;89.40;;;;;;5033590;28;20500;-81
2022/06/17 09:38:53;;;;;;;7.20;3.20;;;26.70;88.30;;;;;;5034331;28;20037;-81
2022/06/17 09:41:25;;;;;;;7.50;2.83;;;26.80;82.10;;;;;;5016007;28;20106;-81
2022/06/17 09:44:02;;;;;;;6.78;3.65;;;26.90;83.30;;;;;;5048588;28;20381;-81
2022/06/17 09:46:47;;;;;;;6.53;2.70;;;26.80;79.70;;;;;;5032165;28;20037;-80
2022/06/17 09:49:41;;;;;;;4.95;2.72;;;26.70;77.20;;;;;;5019956;28;20045;-78
2022/06/17 09:52:12;;;;;;;4.97;3.00;;;26.50;76.10;;;;;;5050622;28;20049;-77
2022/06/17 09:54:42;;;;;;;;;;;26.40;76.20;;;;;;5050014;28;20038;-77
2022/06/17 09:57:23;;;;;;;5.82;3.03;;;26.50;74.80;;;;;;5044989;28;20368;-78
2022/06/17 10:00:14;;;;;;;5.15;2.58;;;26.60;77.20;;;;;;5015479;28;20099;-77
2022/06/17 10:02:53;;;;;;;2.78;2.38;;;26.70;78.50;;;;;;5020728;28;20496;-77
2022/06/17 10:05:44;;;;;;;7.20;2.80;;;26.80;75.50;;;;;;5014023;28;20089;-78
2022/06/17 10:08:26;;;;;;;3.70;2.75;;;26.80;76.40;;;;;;5015243;28;20695;-77
2022/06/17 10:11:18;;;;;;;6.20;3.03;;;26.80;76.60;;;;;;5030395;28;20052;-77
2022/06/17 10:13:43;;;;;;;;;;;26.90;79.30;;;;;;5041580;28;20121;-78
2022/06/17 10:19:38;;;;;;;4.47;3.03;;;26.80;76.00;;;;;;5030870;28;20128;-78
2022/06/17 10:22:23;;;;;;;4.20;2.67;;;26.80;76.60;;;;;;5029358;28;20136;-77
2022/06/17 10:25:06;;;;;;;4.57;2.50;;;26.90;74.70;;;;;;5014501;28;20072;-78
2022/06/17 10:27:34;;;;;;;6.50;2.85;;;27.00;75.60;;;;;;5031277;28;20108;-77
2022/06/17 10:30:17;;;;;;;5.15;2.85;;;27.20;74.20;;;;;;5014137;28;20078;-78
2022/06/17 10:32:47;;;;;;;6.32;3.45;;;27.40;69.70;;;;;;5031508;28;20400;-78
2022/06/17 10:35:34;;;;;;;4.65;2.60;;;27.60;72.50;;;;;;5031114;28;20099;-77
2022/06/17 10:38:03;;;;;;;4.70;2.83;;;27.60;70.30;;;;;;5015341;28;20468;-78
2022/06/17 10:40:31;;;;;;;6.63;3.08;;;27.50;72.50;;;;;;5014603;28;20045;-77
2022/06/17 10:43:02;;;;;;;3.38;2.95;;;27.40;74.00;;;;;;5030990;28;20399;-77
2022/06/17 10:45:28;;;;;;;13.55;5.50;;;27.20;76.10;;;;;;5032476;28;20042;-77
2022/06/17 10:48:03;;;;;;;5.78;2.97;;;27.20;75.80;;;;;;5031501;28;20037;-77
2022/06/17 10:50:30;;;;;;;6.95;3.13;;;27.20;74.70;;;;;;5014273;28;20045;-77
2022/06/17 10:53:16;;;;;;;7.03;2.60;;;27.10;72.30;;;;;;5032409;28;20049;-77
2022/06/17 10:55:51;;;;;;;5.18;2.58;;;27.20;72.70;;;;;;5014547;28;20053;-77
2022/06/17 10:58:23;;;;;;;5.43;2.65;;;27.30;72.30;;;;;;5032378;28;20048;-77
2022/06/17 11:00:54;;;;;;;6.75;3.17;;;27.30;73.30;;;;;;5032211;28;20045;-76
2022/06/17 11:03:24;;;;;;;6.93;2.83;;;27.40;72.10;;;;;;5032156;28;20041;-77
2022/06/17 11:05:54;;;;;;;5.50;2.80;;;27.40;71.10;;;;;;5032050;28;20038;-77
2022/06/17 11:08:23;;;;;;;9.63;2.97;;;27.50;70.80;;;;;;5032106;28;20148;-77
2022/06/17 11:10:55;;;;;;;7.28;2.65;;;27.40;69.40;;;;;;5030862;28;20362;-77
2022/06/17 11:13:21;;;;;;;4.38;3.63;;;27.40;71.00;;;;;;5030480;28;20087;-77
2022/06/17 11:15:56;;;;;;;6.63;3.28;;;27.40;71.60;;;;;;5030671;28;20069;-76
2022/06/17 11:18:33;;;;;;;5.15;2.95;;;27.40;71.30;;;;;;5030757;28;20452;-77
2022/06/17 11:20:59;;;;;;;4.18;2.90;;;27.50;69.60;;;;;;5014117;28;20132;-77
2022/06/17 11:23:41;;;;;;;6.85;3.65;;;27.40;69.60;;;;;;5030440;28;20112;-76
2022/06/17 11:26:12;;;;;;;6.55;3.55;;;27.50;68.90;;;;;;5031641;28;20120;-76
2022/06/17 11:28:41;;;;;;;;;;;27.40;70.00;;;;;;5031594;28;20034;-77
2022/06/17 11:31:14;;;;;;;4.72;2.88;;;27.30;72.50;;;;;;5031774;28;19917;-77
2022/06/17 11:33:54;;;;;;;6.78;3.58;;;27.30;73.60;;;;;;5030549;28;20045;-76
2022/06/17 11:36:35;;;;;;;9.23;3.78;;;27.30;71.80;;;;;;5013955;28;20077;-77
2022/06/17 11:39:46;;;;;;;10.43;4.15;;;27.30;70.10;;;;;;5031562;28;20539;-76
2022/06/17 11:42:19;;;;;;;6.93;3.42;;;27.40;72.00;;;;;;5028216;28;20513;-76
2022/06/17 11:44:58;;;;;;;5.25;3.10;;;27.50;68.70;;;;;;5030331;28;20121;-76
2022/06/17 11:47:26;;;;;;;5.40;2.75;;;27.70;67.90;;;;;;5031375;28;20037;-76
2022/06/17 11:49:57;;;;;;;6.28;3.00;;;27.80;68.50;;;;;;5031469;28;20373;-77
2022/06/17 11:52:32;;;;;;;6.40;2.93;;;27.90;67.80;;;;;;5031810;28;20536;-77
2022/06/17 11:54:59;;;;;;;4.25;2.97;;;28.00;67.90;;;;;;5031352;28;20049;-77
2022/06/17 11:57:31;;;;;;;5.22;3.05;;;28.20;67.00;;;;;;5031763;28;20053;-77
2022/06/17 11:59:59;;;;;;;8.05;3.30;;;28.70;66.20;;;;;;5013345;28;20488;-77
2022/06/17 12:02:25;;;;;;;7.63;3.47;;;29.00;65.30;;;;;;5030114;28;20037;-77
2022/06/17 12:04:57;;;;;;;3.63;2.80;;;29.10;65.00;;;;;;5013621;28;20492;-78
2022/06/17 12:07:46;;;;;;;7.10;2.65;;;29.00;62.90;;;;;;5030097;28;20069;-77
2022/06/17 12:10:47;;;;;;;4.57;2.55;;;29.00;61.00;;;;;;5029814;28;20447;-77
2022/06/17 12:13:22;;;;;;;11.63;2.45;;;29.10;60.60;;;;;;4991753;28;20163;-80
2022/06/17 12:16:13;;;;;;;5.22;2.75;;;29.30;59.60;;;;;;5013900;28;20496;-79
2022/06/17 12:18:45;;;;;;;4.25;2.60;;;29.40;57.70;;;;;;5014591;28;20087;-80
2022/06/17 12:21:28;;;;;;;5.65;2.70;;;29.50;59.20;;;;;;5014205;28;20111;-80
2022/06/17 12:24:30;;;;;;;8.07;3.33;;;29.40;58.00;;;;;;5021222;23;20064;-79
2022/06/17 12:26:59;;;;;;;;;;;29.20;58.40;;;;;;5010195;28;20046;-79
2022/06/17 12:29:43;;;;;;;4.50;2.53;;;29.10;56.50;;;;;;5011791;28;19917;-79
2022/06/17 12:32:18;;;;;;;4.38;2.42;;;29.20;57.70;;;;;;5016685;28;20156;-79
2022/06/17 12:35:02;;;;;;;4.00;2.47;;;29.40;57.00;;;;;;5032693;28;20076;-79
2022/06/17 12:38:05;;;;;;;3.58;2.42;;;29.70;57.40;;;;;;5009553;28;20532;-79
2022/06/17 12:40:40;;;;;;;6.85;2.58;;;29.80;57.60;;;;;;5032765;28;20046;-79
2022/06/17 12:43:32;;;;;;;5.35;2.70;;;30.00;56.20;;;;;;5036175;28;20045;-79
2022/06/17 12:46:21;;;;;;;4.78;2.47;;;30.10;56.00;;;;;;5012505;28;20088;-78
2022/06/17 12:48:57;;;;;;;3.35;2.20;;;30.20;55.80;;;;;;5037124;28;20053;-79
2022/06/17 12:54:34;;;;;;;3.13;2.15;;;30.20;54.70;;;;;;5016592;28;20448;-80
2022/06/17 12:57:36;;;;;;;5.50;2.63;;;30.30;55.20;;;;;;5016649;28;20137;-79
2022/06/17 13:00:11;;;;;;;3.47;1.92;;;30.40;53.60;;;;;;4995712;28;20146;-79
2022/06/17 13:02:55;;;;;;;8.95;2.95;;;30.40;55.20;;;;;;5010118;28;20064;-79
2022/06/17 13:05:25;;;;;;;5.25;2.60;;;30.50;52.50;;;;;;5001234;28;20038;-79
2022/06/17 13:07:58;;;;;;;5.50;2.80;;;30.40;53.20;;;;;;5009185;28;20040;-79
2022/06/17 13:10:42;;;;;;;2.85;2.33;;;30.50;53.70;;;;;;5032121;28;20048;-79
2022/06/17 13:13:39;;;;;;;3.95;2.55;;;30.60;53.00;;;;;;5034523;28;20084;-79
2022/06/17 13:16:28;;;;;;;5.63;2.40;;;30.70;51.30;;;;;;5027258;28;20121;-79
2022/06/17 13:19:07;;;;;;;5.32;2.50;;;30.60;52.50;;;;;;5019128;28;20059;-77
2022/06/17 13:22:07;;;;;;;7.53;2.60;;;30.70;53.60;;;;;;5047003;28;20185;-79
2022/06/17 13:24:38;;;;;;;4.97;2.90;;;30.60;54.30;;;;;;5022020;28;20045;-79